Time;durP1;ratioP1;P1;durP2;ratioP2;P2;SDS_P1;SDS_P2;PMS_P1;PMS_P2;Temp;Humidity;BMP_temperature;BMP_pressure;BME280_temperature;BME280_humidity;BME280_pressure;Samples;Min_cycle;Max_cycle;Signal;HPM_P1;HPM_P2
2022/05/19 00:01:04;;;;;;;6.15;4.62;;;16.60;99.90;;;;;;7346614;32;20111;-62
2022/05/19 00:05:06;;;;;;;8.85;4.40;;;16.60;99.90;;;;;;7342264;32;20348;-61
2022/05/19 00:09:08;;;;;;;8.80;3.83;;;16.60;99.90;;;;;;7358196;32;20709;-62
2022/05/19 00:13:10;;;;;;;7.28;4.15;;;16.60;99.90;;;;;;7353718;32;20125;-62
2022/05/19 00:17:12;;;;;;;5.03;3.78;;;16.60;99.90;;;;;;7337817;32;20115;-62
2022/05/19 00:21:14;;;;;;;5.80;4.03;;;16.60;99.90;;;;;;7352762;32;20107;-63
2022/05/19 00:25:15;;;;;;;4.95;4.32;;;16.60;99.90;;;;;;7345833;32;20776;-62
2022/05/19 00:29:17;;;;;;;7.15;4.22;;;16.60;99.90;;;;;;7354861;32;20245;-62
2022/05/19 00:33:19;;;;;;;4.97;3.72;;;16.60;99.90;;;;;;7360398;32;20139;-62
2022/05/19 00:37:21;;;;;;;10.55;4.03;;;16.70;99.90;;;;;;7354212;32;20298;-62
2022/05/19 00:41:23;;;;;;;5.87;3.85;;;16.70;99.90;;;;;;7361523;32;20714;-62
2022/05/19 00:45:27;;;;;;;7.32;3.80;;;16.80;99.90;;;;;;7357424;32;20305;-61
2022/05/19 00:49:35;;;;;;;6.03;3.55;;;16.80;99.90;;;;;;7363837;32;20163;-62
2022/05/19 00:54:06;;;;;;;5.55;3.12;;;16.90;99.90;;;;;;7345926;32;20111;-62
2022/05/19 00:58:44;;;;;;;8.27;2.97;;;17.00;99.90;;;;;;7357267;32;20127;-62
2022/05/19 01:02:51;;;;;;;3.60;3.05;;;17.10;99.90;;;;;;7326048;32;20194;-62
2022/05/19 01:06:56;;;;;;;5.97;2.45;;;17.30;99.90;;;;;;7351886;32;20233;-61
2022/05/19 01:10:59;;;;;;;5.43;2.80;;;17.70;99.90;;;;;;7344059;32;20133;-62
2022/05/19 01:15:02;;;;;;;5.57;2.33;;;18.00;99.90;;;;;;7335593;32;20133;-62
2022/05/19 01:19:33;;;;;;;3.10;2.20;;;18.20;99.90;;;;;;7353016;32;20150;-62
2022/05/19 01:23:51;;;;;;;5.47;2.50;;;18.40;99.90;;;;;;7349707;32;20111;-63
2022/05/19 01:27:53;;;;;;;4.45;2.40;;;18.60;99.90;;;;;;7344895;32;20384;-62
2022/05/19 01:32:03;;;;;;;6.72;2.20;;;18.80;99.90;;;;;;7361014;32;20225;-63
2022/05/19 01:36:04;;;;;;;4.65;2.10;;;18.90;99.90;;;;;;7355439;32;20798;-61
2022/05/19 01:40:24;;;;;;;4.57;2.17;;;19.00;99.90;;;;;;7369891;32;20321;-62
2022/05/19 01:44:50;;;;;;;4.55;2.00;;;19.00;99.90;;;;;;7344623;32;20668;-62
2022/05/19 01:49:01;;;;;;;3.55;2.10;;;19.10;99.90;;;;;;7348135;32;20122;-63
2022/05/19 01:53:23;;;;;;;4.28;2.47;;;19.30;99.90;;;;;;7357337;32;20227;-63
2022/05/19 01:57:31;;;;;;;5.57;2.40;;;19.40;99.90;;;;;;7363642;32;20128;-62
2022/05/19 02:01:33;;;;;;;3.45;1.90;;;19.40;99.90;;;;;;7357670;32;20845;-62
2022/05/19 02:05:39;;;;;;;3.45;1.95;;;19.50;99.90;;;;;;7359949;32;20256;-62
2022/05/19 02:09:50;;;;;;;4.18;2.00;;;19.50;99.90;;;;;;7358789;32;20111;-63
2022/05/19 02:13:54;;;;;;;5.80;2.30;;;19.50;99.90;;;;;;7344387;32;20920;-62
2022/05/19 02:17:57;;;;;;;3.97;1.90;;;19.50;99.90;;;;;;7365424;32;20220;-62
2022/05/19 02:21:59;;;;;;;3.22;1.90;;;19.40;99.90;;;;;;7347581;32;20115;-62
2022/05/19 02:26:02;;;;;;;4.10;2.00;;;19.40;99.90;;;;;;7359154;32;20198;-62
2022/05/19 02:30:08;;;;;;;4.20;2.20;;;19.40;99.90;;;;;;7366763;32;20201;-64
2022/05/19 02:34:10;;;;;;;2.73;1.80;;;19.40;99.90;;;;;;7352282;32;20602;-63
2022/05/19 02:38:12;;;;;;;3.83;2.12;;;19.30;99.90;;;;;;7362937;32;20111;-62
2022/05/19 02:42:14;;;;;;;3.87;2.00;;;19.30;99.90;;;;;;7346938;32;20106;-63
2022/05/19 02:46:16;;;;;;;4.40;1.98;;;19.30;99.90;;;;;;7355760;32;20281;-63
2022/05/19 02:50:19;;;;;;;5.45;2.10;;;19.20;99.90;;;;;;7349895;32;20126;-63
2022/05/19 02:54:21;;;;;;;4.68;2.37;;;19.10;99.90;;;;;;7363691;32;20131;-62
2022/05/19 02:58:23;;;;;;;5.05;2.03;;;19.10;99.90;;;;;;7363089;32;20143;-63
2022/05/19 03:02:25;;;;;;;4.93;2.37;;;19.20;99.90;;;;;;7356268;32;20134;-62
2022/05/19 03:06:27;;;;;;;4.97;2.60;;;19.20;99.90;;;;;;7359881;32;20548;-62
2022/05/19 03:10:29;;;;;;;2.83;2.20;;;19.20;99.90;;;;;;7346363;32;20145;-62
2022/05/19 03:14:31;;;;;;;3.92;2.12;;;19.10;99.90;;;;;;7361053;32;20242;-63
2022/05/19 03:18:33;;;;;;;3.35;2.10;;;19.10;99.90;;;;;;7338939;32;20345;-62
2022/05/19 03:22:34;;;;;;;4.30;2.00;;;19.10;99.90;;;;;;7355282;32;20209;-62
2022/05/19 03:26:36;;;;;;;4.18;2.10;;;19.10;99.90;;;;;;7345811;32;20198;-62
2022/05/19 03:30:38;;;;;;;4.12;2.00;;;19.10;99.90;;;;;;7349768;32;20218;-61
2022/05/19 03:34:39;;;;;;;3.05;1.90;;;19.10;99.90;;;;;;7360893;32;20193;-62
2022/05/19 03:38:41;;;;;;;4.30;2.33;;;19.00;99.90;;;;;;7358756;32;20111;-61
2022/05/19 03:42:43;;;;;;;3.72;2.10;;;18.90;99.90;;;;;;7356684;32;20108;-62
2022/05/19 03:46:44;;;;;;;3.97;2.10;;;18.90;99.90;;;;;;7353491;32;20373;-62
2022/05/19 03:50:48;;;;;;;4.43;2.08;;;18.90;99.90;;;;;;7357548;32;20842;-61
2022/05/19 03:54:50;;;;;;;4.87;2.17;;;18.90;99.90;;;;;;7364491;32;20732;-62
2022/05/19 03:58:52;;;;;;;5.28;2.37;;;19.00;99.90;;;;;;7367629;32;20139;-62
2022/05/19 04:02:54;;;;;;;7.60;2.10;;;19.00;99.90;;;;;;7362533;32;20164;-62
2022/05/19 04:07:00;;;;;;;5.55;2.17;;;19.00;99.90;;;;;;7360666;32;20133;-62
2022/05/19 04:11:02;;;;;;;3.97;2.37;;;19.00;99.90;;;;;;7364859;32;20103;-62
2022/05/19 04:15:06;;;;;;;7.18;2.12;;;19.00;99.90;;;;;;7344071;32;20157;-61
2022/05/19 04:19:07;;;;;;;5.18;2.20;;;19.10;99.90;;;;;;7355302;32;20614;-60
2022/05/19 04:23:10;;;;;;;6.95;2.55;;;19.20;99.90;;;;;;7335804;32;20131;-61
2022/05/19 04:27:14;;;;;;;4.87;2.08;;;19.20;99.90;;;;;;7356735;32;20106;-60
2022/05/19 04:31:15;;;;;;;4.28;2.05;;;19.20;99.90;;;;;;7350343;32;20543;-61
2022/05/19 04:35:18;;;;;;;4.85;2.33;;;19.30;99.90;;;;;;7360970;32;20205;-61
2022/05/19 04:39:21;;;;;;;6.85;2.30;;;19.50;99.90;;;;;;7358133;32;20119;-61
2022/05/19 04:43:23;;;;;;;9.55;2.40;;;19.60;99.90;;;;;;7351085;32;20107;-60
2022/05/19 04:47:25;;;;;;;7.35;2.58;;;19.80;99.90;;;;;;7348566;32;20195;-66
2022/05/19 04:51:27;;;;;;;2.90;2.03;;;20.00;99.90;;;;;;7360861;32;20315;-66
2022/05/19 04:55:29;;;;;;;4.80;2.00;;;20.30;99.90;;;;;;7354252;32;20261;-66
2022/05/19 04:59:32;;;;;;;5.97;2.50;;;20.50;99.90;;;;;;7348095;32;20137;-65
2022/05/19 05:03:33;;;;;;;6.72;2.25;;;20.80;99.90;;;;;;7267171;32;20117;-65
2022/05/19 05:07:35;;;;;;;6.95;2.17;;;21.00;99.90;;;;;;7229417;32;20162;-65
2022/05/19 05:11:39;;;;;;;3.20;2.10;;;21.00;99.90;;;;;;7266176;32;20949;-65
2022/05/19 05:15:42;;;;;;;5.32;2.10;;;21.00;99.90;;;;;;7234073;32;20200;-56
2022/05/19 05:19:44;;;;;;;3.92;2.08;;;21.10;99.90;;;;;;7235015;32;20130;-64
2022/05/19 05:23:46;;;;;;;8.93;2.10;;;20.90;99.90;;;;;;7284625;32;20172;-64
2022/05/19 05:27:47;;;;;;;4.43;2.22;;;20.80;99.90;;;;;;7240143;32;20271;-63
2022/05/19 05:31:49;;;;;;;3.87;2.12;;;20.70;99.90;;;;;;7291432;32;20131;-65
2022/05/19 05:35:51;;;;;;;2.42;1.70;;;20.70;99.90;;;;;;7235645;32;20108;-65
2022/05/19 05:39:52;;;;;;;5.62;1.85;;;20.50;99.90;;;;;;7267703;32;20152;-63
2022/05/19 05:43:54;;;;;;;5.53;2.30;;;20.30;99.90;;;;;;7283875;32;20142;-64
2022/05/19 05:47:56;;;;;;;3.47;2.22;;;20.30;99.90;;;;;;7237015;32;20112;-65
2022/05/19 05:51:57;;;;;;;4.30;2.20;;;20.10;99.90;;;;;;7285334;32;20341;-64
2022/05/19 05:55:59;;;;;;;4.82;2.50;;;20.00;99.90;;;;;;7243811;32;20130;-64
2022/05/19 06:00:02;;;;;;;5.75;2.10;;;20.20;99.90;;;;;;7242824;32;20101;-63
2022/05/19 06:04:04;;;;;;;7.30;2.22;;;20.20;99.90;;;;;;7349500;32;20174;-64
2022/05/19 06:08:06;;;;;;;5.30;2.30;;;20.20;99.90;;;;;;7372771;32;20345;-64
2022/05/19 06:12:08;;;;;;;4.72;2.15;;;20.10;99.90;;;;;;7359078;32;20165;-64
2022/05/19 06:16:11;;;;;;;6.03;2.50;;;20.10;99.90;;;;;;7363791;32;20129;-65
2022/05/19 06:20:14;;;;;;;5.80;2.40;;;20.20;99.90;;;;;;7348514;32;20240;-64
2022/05/19 06:24:16;;;;;;;5.37;2.70;;;20.30;99.90;;;;;;7357865;32;20115;-65
2022/05/19 06:28:18;;;;;;;7.85;2.35;;;20.40;99.90;;;;;;7359925;32;20209;-64
2022/05/19 06:32:19;;;;;;;5.28;2.37;;;20.60;99.90;;;;;;7350212;32;20149;-64
2022/05/19 06:36:21;;;;;;;6.82;2.55;;;20.80;99.90;;;;;;7369956;32;20106;-64
2022/05/19 06:40:24;;;;;;;7.35;2.28;;;20.90;99.90;;;;;;7352600;32;20103;-64
2022/05/19 06:44:34;;;;;;;5.07;2.55;;;21.00;99.90;;;;;;7360605;32;20147;-63
2022/05/19 06:48:36;;;;;;;4.18;2.20;;;21.20;99.90;;;;;;7356226;32;20123;-63
2022/05/19 06:52:48;;;;;;;5.32;2.58;;;21.50;99.90;;;;;;7338150;32;20212;-64
2022/05/19 06:56:50;;;;;;;7.20;2.47;;;21.50;99.90;;;;;;7348953;32;20111;-65
2022/05/19 07:00:53;;;;;;;4.57;2.10;;;21.50;99.90;;;;;;7358955;32;20095;-64
2022/05/19 07:04:54;;;;;;;5.53;2.37;;;21.60;99.90;;;;;;7357521;32;20134;-65
2022/05/19 07:08:56;;;;;;;9.40;2.75;;;21.50;99.90;;;;;;7339421;32;20442;-65
2022/05/19 07:12:59;;;;;;;5.07;2.30;;;21.50;99.90;;;;;;7356348;32;20288;-64
2022/05/19 07:17:01;;;;;;;3.10;2.10;;;21.50;99.90;;;;;;7358676;32;20463;-64
2022/05/19 07:21:10;;;;;;;4.05;2.05;;;21.60;99.90;;;;;;7357319;32;20153;-64
2022/05/19 07:25:11;;;;;;;8.73;3.10;;;21.90;99.90;;;;;;7359723;32;20677;-64
2022/05/19 07:29:13;;;;;;;5.45;2.20;;;21.90;99.90;;;;;;7354595;32;20123;-64
2022/05/19 07:33:16;;;;;;;3.90;2.35;;;22.00;99.90;;;;;;7347368;32;20118;-64
2022/05/19 07:37:18;;;;;;;4.43;2.42;;;22.10;99.90;;;;;;7364769;32;20201;-64
2022/05/19 07:41:20;;;;;;;7.43;2.53;;;22.10;99.90;;;;;;7360022;32;20115;-65
2022/05/19 07:45:22;;;;;;;6.50;2.45;;;22.20;99.90;;;;;;7345317;32;20110;-63
2022/05/19 07:49:24;;;;;;;4.00;2.85;;;22.30;99.90;;;;;;7357454;32;20620;-65
2022/05/19 07:53:25;;;;;;;4.22;2.60;;;22.30;99.90;;;;;;7360399;32;20199;-64
2022/05/19 07:57:28;;;;;;;6.87;2.35;;;22.30;99.90;;;;;;7355535;32;20129;-65
2022/05/19 08:01:30;;;;;;;7.10;2.28;;;22.40;99.90;;;;;;7358967;32;20137;-66
2022/05/19 08:05:32;;;;;;;4.93;2.22;;;22.50;99.90;;;;;;7354609;32;20111;-65
2022/05/19 08:18:20;;;;;;;5.35;2.58;;;23.00;99.90;;;;;;7353832;32;20466;-64
2022/05/19 08:22:22;;;;;;;;;;;23.00;99.90;;;;;;7357671;32;20242;-64
2022/05/19 08:26:24;;;;;;;7.35;2.33;;;23.20;99.90;;;;;;7359679;32;20486;-64
2022/05/19 08:30:26;;;;;;;5.95;2.28;;;23.20;99.90;;;;;;7355068;32;20174;-64
2022/05/19 08:34:28;;;;;;;3.25;2.20;;;23.30;99.90;;;;;;7342448;32;20232;-65
2022/05/19 08:38:31;;;;;;;6.15;2.47;;;23.40;99.90;;;;;;7348676;32;20115;-64
2022/05/19 08:42:41;;;;;;;6.72;2.60;;;23.90;99.90;;;;;;7345797;32;20241;-65
2022/05/19 08:46:48;;;;;;;5.60;2.30;;;24.60;99.90;;;;;;7357625;32;20536;-65
2022/05/19 08:50:56;;;;;;;7.50;2.40;;;25.40;99.90;;;;;;7363860;32;20244;-64
2022/05/19 08:54:59;;;;;;;6.55;2.28;;;25.90;99.90;;;;;;7364261;32;20218;-65
2022/05/19 08:59:19;;;;;;;4.62;2.15;;;26.20;99.90;;;;;;7362011;32;20570;-64
2022/05/19 09:03:24;;;;;;;3.62;2.28;;;26.60;99.90;;;;;;7359047;32;20548;-65
2022/05/19 09:07:58;;;;;;;4.25;2.08;;;27.00;99.90;;;;;;7348868;32;20282;-65
2022/05/19 09:12:08;;;;;;;4.20;2.05;;;27.30;99.90;;;;;;7360320;32;20193;-65
2022/05/19 09:16:15;;;;;;;4.25;2.50;;;27.30;99.90;;;;;;7367137;32;20236;-65
2022/05/19 09:20:26;;;;;;;6.05;2.00;;;27.80;99.90;;;;;;7348777;32;20129;-64
2022/05/19 09:24:28;;;;;;;5.37;2.12;;;27.80;99.90;;;;;;7363135;32;20229;-64
2022/05/19 09:28:31;;;;;;;4.30;1.90;;;28.20;99.90;;;;;;7346967;32;20103;-65
2022/05/19 09:32:39;;;;;;;4.12;2.35;;;28.30;99.90;;;;;;7361701;32;20329;-65
2022/05/19 09:37:01;;;;;;;6.28;2.28;;;28.50;99.90;;;;;;7342159;32;20145;-65
2022/05/19 09:41:24;;;;;;;6.22;2.10;;;28.60;99.90;;;;;;7351175;32;20110;-65
2022/05/19 09:45:28;;;;;;;5.30;1.87;;;28.70;99.90;;;;;;7352896;32;20187;-63
2022/05/19 09:49:33;;;;;;;6.60;2.22;;;29.00;98.60;;;;;;7362551;32;20130;-63
2022/05/19 09:53:41;;;;;;;3.92;2.00;;;29.40;99.90;;;;;;7348208;32;20557;-64
2022/05/19 09:58:02;;;;;;;3.42;1.92;;;29.50;97.60;;;;;;7355998;32;20129;-64
2022/05/19 10:02:17;;;;;;;3.05;2.12;;;29.40;96.60;;;;;;7357252;32;20233;-65
2022/05/19 10:06:22;;;;;;;4.30;2.00;;;29.60;95.70;;;;;;7351522;32;20353;-65
2022/05/19 10:10:27;;;;;;;3.22;1.87;;;29.80;93.60;;;;;;7357026;32;20218;-65
2022/05/19 10:14:31;;;;;;;7.47;2.22;;;30.00;95.30;;;;;;7357034;32;20216;-65
2022/05/19 10:18:50;;;;;;;3.28;2.00;;;30.40;94.40;;;;;;7359262;32;20210;-65
2022/05/19 10:23:08;;;;;;;4.78;2.12;;;30.50;90.90;;;;;;7357259;32;20108;-64
2022/05/19 10:32:21;;;;;;;7.68;2.28;;;30.70;90.10;;;;;;7362237;32;20257;-68
2022/05/19 10:36:38;;;;;;;4.78;2.37;;;30.90;89.40;;;;;;7351894;32;20182;-68
2022/05/19 10:40:57;;;;;;;5.55;2.35;;;31.00;91.10;;;;;;7334305;32;20920;-67
2022/05/19 10:45:25;;;;;;;6.90;2.47;;;30.70;85.10;;;;;;7362572;32;20142;-68
2022/05/19 10:50:02;;;;;;;5.40;2.45;;;30.80;90.10;;;;;;7359947;32;20107;-60
2022/05/19 10:54:17;;;;;;;3.62;2.00;;;30.60;88.40;;;;;;7363162;32;20595;-66
2022/05/19 10:58:32;;;;;;;6.20;2.22;;;30.60;90.90;;;;;;7359014;32;20263;-66
2022/05/19 11:02:44;;;;;;;5.90;2.28;;;30.50;84.80;;;;;;7363508;32;20480;-65
2022/05/19 11:07:12;;;;;;;5.10;2.53;;;29.60;87.60;;;;;;7357928;32;20622;-66
2022/05/19 11:11:23;;;;;;;4.50;2.10;;;28.70;89.40;;;;;;7360392;32;20194;-67
2022/05/19 11:15:56;;;;;;;6.70;2.42;;;28.20;92.60;;;;;;7345560;32;20249;-66
2022/05/19 11:20:11;;;;;;;8.30;2.75;;;27.50;93.20;;;;;;7313263;32;20241;-66
2022/05/19 11:24:22;;;;;;;5.05;2.62;;;27.00;98.40;;;;;;7346408;32;20134;-67
2022/05/19 11:29:08;;;;;;;22.08;3.22;;;26.70;99.90;;;;;;7341693;32;20122;-67
2022/05/19 11:33:16;;;;;;;5.68;2.95;;;27.30;99.90;;;;;;7302414;32;20272;-67
2022/05/19 11:37:31;;;;;;;5.32;2.65;;;27.80;99.90;;;;;;7354219;32;20250;-66
2022/05/19 11:41:36;;;;;;;4.20;2.80;;;28.30;99.90;;;;;;7341698;32;20182;-67
2022/05/19 11:46:01;;;;;;;3.35;2.58;;;28.40;97.10;;;;;;7349889;32;20431;-67
2022/05/19 11:55:13;;;;;;;5.82;2.30;;;28.80;94.80;;;;;;7357924;32;20103;-67
2022/05/19 11:59:15;;;;;;;4.68;2.15;;;29.10;93.70;;;;;;7330850;32;20616;-68
2022/05/19 12:03:20;;;;;;;5.32;2.45;;;29.40;91.20;;;;;;7340958;32;20133;-68
2022/05/19 12:07:36;;;;;;;3.62;2.10;;;29.60;90.00;;;;;;7356710;32;20110;-68
2022/05/19 12:11:45;;;;;;;5.90;2.37;;;29.60;88.70;;;;;;7346717;32;20719;-68
2022/05/19 12:15:55;;;;;;;7.35;2.65;;;29.90;88.60;;;;;;7344090;32;20129;-68
2022/05/19 12:19:58;;;;;;;3.92;2.10;;;29.80;86.50;;;;;;7351583;32;20169;-68
2022/05/19 12:24:08;;;;;;;6.72;2.40;;;29.60;85.70;;;;;;7358684;32;20247;-69
2022/05/19 12:28:12;;;;;;;7.97;2.30;;;29.50;84.60;;;;;;7356831;32;20206;-68
2022/05/19 12:32:21;;;;;;;6.78;2.47;;;29.20;88.80;;;;;;7363732;32;20114;-68
2022/05/19 12:36:41;;;;;;;8.20;2.42;;;29.00;86.30;;;;;;7356340;32;20126;-68
2022/05/19 12:40:55;;;;;;;3.20;2.20;;;28.90;89.60;;;;;;7345115;32;20115;-68
2022/05/19 12:44:56;;;;;;;7.18;2.28;;;28.90;88.30;;;;;;7360664;32;20133;-68
2022/05/19 12:49:25;;;;;;;5.68;2.20;;;28.60;85.60;;;;;;7334369;32;20221;-68
2022/05/19 12:53:27;;;;;;;7.22;2.80;;;28.10;89.90;;;;;;7352483;32;20115;-68
2022/05/19 12:57:29;;;;;;;2.95;2.00;;;27.70;90.30;;;;;;7356191;32;20300;-67
2022/05/19 13:01:44;;;;;;;4.68;2.42;;;27.50;90.80;;;;;;7339593;32;20487;-66
2022/05/19 13:05:59;;;;;;;9.25;2.58;;;27.20;92.40;;;;;;7338722;32;20233;-67
2022/05/19 13:10:21;;;;;;;6.60;2.70;;;26.90;94.30;;;;;;7354211;32;20450;-67
2022/05/19 13:14:30;;;;;;;26.85;2.37;;;26.60;95.20;;;;;;7343017;32;20130;-68
2022/05/19 13:18:36;;;;;;;23.55;2.35;;;25.40;95.50;;;;;;7352868;32;20232;-67
2022/05/19 13:22:38;;;;;;;16.73;1.65;;;23.40;99.90;;;;;;7356627;32;20106;-66
2022/05/19 13:26:42;;;;;;;12.02;1.27;;;22.20;99.90;;;;;;7358265;32;20194;-67
2022/05/19 13:30:45;;;;;;;33.17;4.60;;;21.10;99.90;;;;;;7350014;32;20115;-65
2022/05/19 13:34:50;;;;;;;14.93;2.50;;;20.20;99.90;;;;;;7358287;32;20222;-67
2022/05/19 13:39:12;;;;;;;16.15;2.08;;;19.20;99.90;;;;;;7368109;32;20223;-66
2022/05/19 13:43:33;;;;;;;18.15;2.40;;;18.50;99.90;;;;;;7362038;32;20107;-67
2022/05/19 13:47:34;;;;;;;14.30;3.28;;;18.20;99.90;;;;;;7340424;32;20275;-66
2022/05/19 13:51:45;;;;;;;13.27;3.42;;;18.10;99.90;;;;;;7348029;32;20111;-65
2022/05/19 13:55:59;;;;;;;12.68;3.60;;;18.00;99.90;;;;;;7358338;32;20414;-66
2022/05/19 14:00:12;;;;;;;8.38;2.60;;;17.90;99.90;;;;;;7364211;32;20217;-65
2022/05/19 14:04:16;;;;;;;9.35;2.53;;;17.80;99.90;;;;;;7357156;32;20148;-66
2022/05/19 14:08:21;;;;;;;9.85;2.97;;;17.80;99.90;;;;;;7353953;32;20129;-66
2022/05/19 14:12:42;;;;;;;14.48;3.55;;;17.80;99.90;;;;;;7350914;32;20464;-66
2022/05/19 14:16:44;;;;;;;12.65;2.72;;;17.70;99.90;;;;;;7360368;32;20099;-66
2022/05/19 14:20:48;;;;;;;15.20;2.67;;;17.60;99.90;;;;;;7349584;32;20660;-65
2022/05/19 14:24:50;;;;;;;11.20;2.70;;;17.60;99.90;;;;;;7359866;32;20183;-67
2022/05/19 14:28:55;;;;;;;10.05;2.40;;;17.70;99.90;;;;;;7357406;32;20187;-66
2022/05/19 14:33:03;;;;;;;10.75;2.30;;;17.70;99.90;;;;;;7360227;32;20103;-66
2022/05/19 14:37:18;;;;;;;7.30;2.17;;;17.90;99.90;;;;;;7364985;32;20422;-66
2022/05/19 14:46:00;;;;;;;7.55;2.35;;;17.90;99.90;;;;;;7366885;32;20129;-66
2022/05/19 14:50:08;;;;;;;6.45;2.20;;;17.90;99.90;;;;;;7352930;32;20194;-58
2022/05/19 14:54:12;;;;;;;7.00;2.35;;;17.90;99.90;;;;;;7348114;32;20198;-66
2022/05/19 14:58:21;;;;;;;6.93;2.38;;;17.80;99.90;;;;;;7355390;32;35538;-65
2022/05/19 15:02:24;;;;;;;6.97;2.50;;;17.80;99.90;;;;;;7337207;32;20141;-66
2022/05/19 15:06:26;;;;;;;7.82;2.62;;;17.70;99.90;;;;;;7359341;32;20498;-65
2022/05/19 15:10:29;;;;;;;5.72;2.30;;;17.80;99.90;;;;;;7351649;32;20161;-65
2022/05/19 15:14:30;;;;;;;12.68;3.50;;;17.90;99.90;;;;;;7349009;32;20606;-65
2022/05/19 15:18:34;;;;;;;10.65;3.15;;;17.80;99.90;;;;;;7356479;32;20206;-65
2022/05/19 15:22:36;;;;;;;11.12;3.20;;;17.80;99.90;;;;;;7365957;32;20130;-64
2022/05/19 15:26:38;;;;;;;6.50;3.10;;;17.80;99.90;;;;;;7358467;32;20110;-64
2022/05/19 15:30:39;;;;;;;9.25;2.83;;;17.80;99.90;;;;;;7360617;32;20716;-64
2022/05/19 15:34:41;;;;;;;8.80;3.03;;;17.80;99.90;;;;;;7352205;32;20720;-65
2022/05/19 15:38:44;;;;;;;6.93;2.70;;;17.80;99.90;;;;;;7356928;32;20217;-66
2022/05/19 15:42:46;;;;;;;11.60;3.10;;;17.80;99.90;;;;;;7362500;32;20431;-63
2022/05/19 15:46:47;;;;;;;8.43;2.90;;;17.90;99.90;;;;;;7359830;32;20115;-65
2022/05/19 15:50:50;;;;;;;6.00;2.78;;;18.00;99.90;;;;;;7350323;32;20111;-66
2022/05/19 15:54:52;;;;;;;5.55;3.08;;;18.00;99.90;;;;;;7357217;32;20110;-65
2022/05/19 15:58:54;;;;;;;10.20;3.22;;;18.10;99.90;;;;;;7358971;32;20102;-65
2022/05/19 16:02:58;;;;;;;7.70;2.87;;;18.10;99.90;;;;;;7366829;32;20474;-65
2022/05/19 16:07:00;;;;;;;10.73;3.25;;;18.20;99.90;;;;;;7349399;32;20364;-65
2022/05/19 16:11:02;;;;;;;12.50;3.55;;;18.30;99.90;;;;;;7358786;32;20526;-65
2022/05/19 16:15:06;;;;;;;9.23;4.03;;;18.40;99.90;;;;;;7357605;32;20559;-66
2022/05/19 16:19:08;;;;;;;9.43;3.87;;;18.50;99.90;;;;;;7359879;32;20592;-65
2022/05/19 16:23:11;;;;;;;8.82;3.67;;;18.60;99.90;;;;;;7363952;32;20157;-66
2022/05/19 16:27:13;;;;;;;13.10;4.40;;;18.70;99.90;;;;;;7367924;32;20114;-65
2022/05/19 16:31:14;;;;;;;11.48;4.62;;;18.90;99.90;;;;;;7366688;32;20135;-65
2022/05/19 16:35:18;;;;;;;7.40;4.07;;;19.00;99.90;;;;;;7364103;32;20114;-64
2022/05/19 16:39:20;;;;;;;7.20;3.60;;;19.20;99.90;;;;;;7350945;32;20214;-65
2022/05/19 16:43:22;;;;;;;8.93;4.40;;;19.20;99.90;;;;;;7356756;32;20262;-65
2022/05/19 16:47:23;;;;;;;6.32;4.57;;;19.30;99.90;;;;;;7355529;32;20654;-66
2022/05/19 16:51:25;;;;;;;10.20;4.12;;;19.40;99.90;;;;;;7344008;32;20211;-65
2022/05/19 16:59:47;;;;;;;11.25;3.70;;;19.40;99.90;;;;;;7359604;32;20133;-64
2022/05/19 17:03:54;;;;;;;7.78;2.70;;;19.60;99.90;;;;;;7355353;32;20129;-65
2022/05/19 17:07:58;;;;;;;4.65;2.00;;;19.70;99.90;;;;;;7354372;32;20237;-65
2022/05/19 17:11:59;;;;;;;6.53;2.15;;;19.70;99.90;;;;;;7351783;32;20107;-67
2022/05/19 17:16:01;;;;;;;7.18;2.10;;;19.60;99.90;;;;;;7365078;32;20499;-66
2022/05/19 17:20:04;;;;;;;4.95;2.45;;;19.60;99.90;;;;;;7373856;32;20382;-66
2022/05/19 17:24:06;;;;;;;5.50;2.33;;;19.60;99.90;;;;;;7340934;32;20115;-66
2022/05/19 17:28:08;;;;;;;6.15;2.97;;;19.50;99.90;;;;;;7366654;32;20533;-66
2022/05/19 17:32:10;;;;;;;4.45;1.77;;;19.50;99.90;;;;;;7369712;32;20133;-67
2022/05/19 17:36:13;;;;;;;2.85;1.60;;;19.40;99.90;;;;;;7351400;32;20142;-67
2022/05/19 17:40:16;;;;;;;4.72;1.87;;;19.40;99.90;;;;;;7352704;32;20344;-66
2022/05/19 17:44:18;;;;;;;5.72;1.77;;;19.30;99.90;;;;;;7363057;32;20436;-67
2022/05/19 17:48:20;;;;;;;6.40;2.17;;;19.30;99.90;;;;;;7355327;32;20167;-66
2022/05/19 17:52:23;;;;;;;7.18;2.03;;;19.10;99.90;;;;;;7344215;32;20538;-66
2022/05/19 17:56:28;;;;;;;5.03;2.17;;;19.10;99.90;;;;;;7370031;32;20154;-68
2022/05/19 18:00:31;;;;;;;4.43;1.95;;;19.00;99.90;;;;;;7349898;32;20127;-69
2022/05/19 18:04:33;;;;;;;6.82;2.10;;;18.80;99.90;;;;;;7245217;32;20611;-68
2022/05/19 18:08:34;;;;;;;5.62;2.10;;;18.70;99.90;;;;;;7239575;32;20567;-68
2022/05/19 18:12:36;;;;;;;5.57;1.90;;;18.60;99.90;;;;;;7241960;32;20222;-68
2022/05/19 18:21:07;;;;;;;5.87;2.65;;;18.50;99.90;;;;;;7250132;32;20112;-68
2022/05/19 18:25:09;;;;;;;6.35;2.60;;;18.40;99.90;;;;;;7238249;32;20154;-58
2022/05/19 18:29:10;;;;;;;5.62;3.00;;;18.40;99.90;;;;;;7291146;32;20155;-58
2022/05/19 18:33:12;;;;;;;5.53;2.17;;;18.30;99.90;;;;;;7237448;32;20796;-58
2022/05/19 18:37:14;;;;;;;5.62;2.60;;;18.20;99.90;;;;;;7285765;32;20105;-59
2022/05/19 18:45:36;;;;;;;8.13;2.65;;;18.10;99.90;;;;;;7231720;32;20204;-58
2022/05/19 18:49:37;;;;;;;8.82;2.80;;;18.00;99.90;;;;;;7292410;32;20108;-67
2022/05/19 18:53:41;;;;;;;4.30;2.53;;;18.00;99.90;;;;;;7239216;32;20160;-68
2022/05/19 18:57:42;;;;;;;8.63;3.08;;;18.00;99.90;;;;;;7240235;32;20452;-67
2022/05/19 19:01:44;;;;;;;6.78;3.33;;;17.90;99.90;;;;;;7323470;32;20266;-67
2022/05/19 19:05:50;;;;;;;7.05;3.65;;;17.70;99.90;;;;;;7343331;32;20400;-68
2022/05/19 19:09:52;;;;;;;4.87;3.30;;;17.70;99.90;;;;;;7372346;32;20115;-66
2022/05/19 19:13:54;;;;;;;5.40;3.65;;;17.70;99.90;;;;;;7362077;32;20115;-65
2022/05/19 19:17:56;;;;;;;6.75;3.22;;;17.60;99.90;;;;;;7359333;32;20453;-66
2022/05/19 19:21:57;;;;;;;7.05;3.15;;;17.50;99.90;;;;;;7367836;32;20111;-66
2022/05/19 19:26:00;;;;;;;8.68;3.80;;;17.40;99.90;;;;;;7363001;32;20135;-66
2022/05/19 19:30:03;;;;;;;7.68;3.53;;;17.40;99.90;;;;;;7361318;32;20220;-66
2022/05/19 19:34:12;;;;;;;6.00;3.83;;;17.30;99.90;;;;;;7366892;32;20129;-64
2022/05/19 19:38:14;;;;;;;8.45;4.10;;;17.30;99.90;;;;;;7345655;32;20130;-64
2022/05/19 19:42:15;;;;;;;7.75;3.70;;;17.40;99.90;;;;;;7365842;32;20103;-63
2022/05/19 19:46:17;;;;;;;7.10;3.40;;;17.30;99.90;;;;;;7364176;32;20131;-63
2022/05/19 19:54:41;;;;;;;7.57;4.05;;;17.40;99.90;;;;;;7356009;32;20107;-64
2022/05/19 19:58:43;;;;;;;8.00;4.70;;;17.50;99.90;;;;;;7348652;32;20115;-64
2022/05/19 20:02:44;;;;;;;7.45;4.40;;;17.50;99.90;;;;;;7367496;32;20111;-63
2022/05/19 20:06:47;;;;;;;8.00;4.70;;;17.40;99.90;;;;;;7359511;32;20277;-62
2022/05/19 20:10:49;;;;;;;11.93;5.35;;;17.40;99.90;;;;;;7349774;32;20099;-65
2022/05/19 20:14:54;;;;;;;7.87;5.65;;;17.40;99.90;;;;;;7355131;32;20119;-66
2022/05/19 20:18:56;;;;;;;8.35;5.78;;;17.30;99.90;;;;;;7360406;32;20298;-64
2022/05/19 20:22:58;;;;;;;9.63;5.97;;;17.20;99.90;;;;;;7356106;32;20108;-64
2022/05/19 20:27:00;;;;;;;9.30;6.15;;;17.20;99.90;;;;;;7360221;32;20260;-65
2022/05/19 20:31:02;;;;;;;11.45;6.68;;;17.20;99.90;;;;;;7353869;32;20779;-64
2022/05/19 20:35:06;;;;;;;10.73;7.50;;;17.10;99.90;;;;;;7367464;32;20156;-64
2022/05/19 20:39:09;;;;;;;14.25;9.95;;;17.20;99.90;;;;;;7361654;32;20133;-64
2022/05/19 20:43:10;;;;;;;12.25;7.65;;;17.20;99.90;;;;;;7358074;32;20676;-65
2022/05/19 20:47:12;;;;;;;18.27;8.50;;;17.20;99.90;;;;;;7352866;32;20278;-65
2022/05/19 20:51:14;;;;;;;10.75;6.47;;;17.30;99.90;;;;;;7360666;32;20129;-65
2022/05/19 20:55:16;;;;;;;11.68;7.35;;;17.40;99.90;;;;;;7356167;32;20123;-64
2022/05/19 20:59:17;;;;;;;15.13;7.07;;;17.40;99.90;;;;;;7353000;32;20114;-64
2022/05/19 21:03:22;;;;;;;12.32;6.62;;;17.40;99.90;;;;;;7345571;32;20720;-62
2022/05/19 21:07:23;;;;;;;8.13;5.18;;;17.50;99.90;;;;;;7361184;32;20221;-62
2022/05/19 21:11:25;;;;;;;10.73;6.62;;;17.40;99.90;;;;;;7364674;32;20107;-62
2022/05/19 21:15:27;;;;;;;14.10;9.10;;;17.60;99.90;;;;;;7360030;32;20205;-62
2022/05/19 21:19:29;;;;;;;13.45;10.50;;;17.60;99.90;;;;;;7358671;32;20125;-61
2022/05/19 21:27:52;;;;;;;16.20;10.70;;;17.60;99.90;;;;;;7367478;32;20644;-62
2022/05/19 21:31:57;;;;;;;14.98;10.98;;;17.60;99.90;;;;;;7340957;32;20142;-61
2022/05/19 21:36:00;;;;;;;15.88;10.00;;;17.60;99.90;;;;;;7347894;32;20135;-63
2022/05/19 21:40:04;;;;;;;13.80;10.77;;;17.50;99.90;;;;;;7366480;32;20212;-61
2022/05/19 21:44:06;;;;;;;10.40;9.30;;;17.50;99.90;;;;;;7371342;32;20138;-62
2022/05/19 21:48:09;;;;;;;12.23;10.75;;;17.50;99.90;;;;;;7363429;32;20222;-62
2022/05/19 21:56:31;;;;;;;17.73;10.75;;;17.50;99.90;;;;;;7368748;32;20107;-61
2022/05/19 22:01:03;;;;;;;21.83;12.55;;;17.40;99.90;;;;;;7353217;32;20609;-62
2022/05/19 22:05:05;;;;;;;13.62;12.10;;;17.40;99.90;;;;;;7361212;32;20104;-62